sensor_id;sensor_type;location;lat;lon;timestamp;pressure;altitude;pressure_sealevel;temperature;humidity
62946;BME280;52164;52.212;-1.010;2023-04-03T00:01:42;102241.22;;;3.14;68.19
62946;BME280;52164;52.212;-1.010;2023-04-03T00:04:07;102240.48;;;3.07;68.33
62946;BME280;52164;52.212;-1.010;2023-04-03T00:06:34;102247.17;;;3.01;68.06
62946;BME280;52164;52.212;-1.010;2023-04-03T00:09:00;102248.14;;;2.93;68.56
62946;BME280;52164;52.212;-1.010;2023-04-03T00:11:25;102244.20;;;2.86;68.42
62946;BME280;52164;52.212;-1.010;2023-04-03T00:13:51;102246.91;;;2.81;68.55
62946;BME280;52164;52.212;-1.010;2023-04-03T00:16:16;102245.90;;;2.76;68.51
62946;BME280;52164;52.212;-1.010;2023-04-03T00:18:42;102243.50;;;2.71;68.66
62946;BME280;52164;52.212;-1.010;2023-04-03T00:21:08;102245.63;;;2.69;68.88
62946;BME280;52164;52.212;-1.010;2023-04-03T00:23:34;102242.42;;;2.65;68.88
62946;BME280;52164;52.212;-1.010;2023-04-03T00:25:59;102237.46;;;2.62;68.70
62946;BME280;52164;52.212;-1.010;2023-04-03T00:28:25;102237.15;;;2.59;68.85
62946;BME280;52164;52.212;-1.010;2023-04-03T00:30:51;102238.40;;;2.56;68.98
62946;BME280;52164;52.212;-1.010;2023-04-03T00:33:17;102235.80;;;2.54;68.94
62946;BME280;52164;52.212;-1.010;2023-04-03T00:35:42;102234.46;;;2.50;69.17
62946;BME280;52164;52.212;-1.010;2023-04-03T00:38:08;102237.05;;;2.46;69.21
62946;BME280;52164;52.212;-1.010;2023-04-03T00:40:35;102238.48;;;2.43;69.32
62946;BME280;52164;52.212;-1.010;2023-04-03T00:43:01;102239.55;;;2.38;69.18
62946;BME280;52164;52.212;-1.010;2023-04-03T00:45:31;102237.66;;;2.33;69.42
62946;BME280;52164;52.212;-1.010;2023-04-03T00:47:57;102236.75;;;2.29;69.12
62946;BME280;52164;52.212;-1.010;2023-04-03T00:50:25;102241.82;;;2.26;69.26
62946;BME280;52164;52.212;-1.010;2023-04-03T00:52:50;102239.48;;;2.22;69.27
62946;BME280;52164;52.212;-1.010;2023-04-03T00:55:16;102237.87;;;2.19;68.98
62946;BME280;52164;52.212;-1.010;2023-04-03T00:57:42;102231.80;;;2.15;69.21
62946;BME280;52164;52.212;-1.010;2023-04-03T01:00:09;102235.42;;;2.10;69.17
62946;BME280;52164;52.212;-1.010;2023-04-03T01:02:35;102238.89;;;2.07;69.94
62946;BME280;52164;52.212;-1.010;2023-04-03T01:05:01;102241.80;;;2.02;70.23
62946;BME280;52164;52.212;-1.010;2023-04-03T01:07:30;102238.85;;;1.98;70.32
62946;BME280;52164;52.212;-1.010;2023-04-03T01:09:57;102236.44;;;1.93;70.23
62946;BME280;52164;52.212;-1.010;2023-04-03T01:12:24;102232.22;;;1.87;69.89
62946;BME280;52164;52.212;-1.010;2023-04-03T01:14:51;102229.81;;;1.83;69.95
62946;BME280;52164;52.212;-1.010;2023-04-03T01:17:26;102235.59;;;1.79;70.62
62946;BME280;52164;52.212;-1.010;2023-04-03T01:19:55;102234.25;;;1.78;70.64
62946;BME280;52164;52.212;-1.010;2023-04-03T01:22:30;102238.18;;;1.76;71.08
62946;BME280;52164;52.212;-1.010;2023-04-03T01:24:59;102237.63;;;1.72;71.20
62946;BME280;52164;52.212;-1.010;2023-04-03T01:27:24;102229.66;;;1.66;70.70
62946;BME280;52164;52.212;-1.010;2023-04-03T01:29:49;102230.27;;;1.59;70.65
62946;BME280;52164;52.212;-1.010;2023-04-03T01:32:15;102226.55;;;1.53;70.62
62946;BME280;52164;52.212;-1.010;2023-04-03T01:34:40;102223.98;;;1.46;70.55
62946;BME280;52164;52.212;-1.010;2023-04-03T01:37:06;102226.52;;;1.39;70.69
62946;BME280;52164;52.212;-1.010;2023-04-03T01:39:31;102229.36;;;1.34;70.84
62946;BME280;52164;52.212;-1.010;2023-04-03T01:41:56;102225.03;;;1.30;70.84
62946;BME280;52164;52.212;-1.010;2023-04-03T01:44:22;102227.86;;;1.27;71.03
62946;BME280;52164;52.212;-1.010;2023-04-03T01:46:47;102225.81;;;1.25;71.38
62946;BME280;52164;52.212;-1.010;2023-04-03T01:49:12;102220.75;;;1.26;71.53
62946;BME280;52164;52.212;-1.010;2023-04-03T01:51:37;102222.21;;;1.24;71.47
62946;BME280;52164;52.212;-1.010;2023-04-03T01:54:03;102224.66;;;1.24;71.57
62946;BME280;52164;52.212;-1.010;2023-04-03T01:56:29;102222.96;;;1.22;71.38
62946;BME280;52164;52.212;-1.010;2023-04-03T01:58:54;102223.94;;;1.21;71.73
62946;BME280;52164;52.212;-1.010;2023-04-03T02:01:19;102221.97;;;1.20;71.48
62946;BME280;52164;52.212;-1.010;2023-04-03T02:03:45;102219.05;;;1.21;71.69
62946;BME280;52164;52.212;-1.010;2023-04-03T02:06:10;102220.20;;;1.20;71.46
62946;BME280;52164;52.212;-1.010;2023-04-03T02:08:37;102218.90;;;1.19;71.69
62946;BME280;52164;52.212;-1.010;2023-04-03T02:11:03;102220.27;;;1.16;71.84
62946;BME280;52164;52.212;-1.010;2023-04-03T02:13:28;102219.13;;;1.12;71.58
62946;BME280;52164;52.212;-1.010;2023-04-03T02:15:53;102219.42;;;1.08;71.91
62946;BME280;52164;52.212;-1.010;2023-04-03T02:18:18;102215.84;;;1.04;71.72
62946;BME280;52164;52.212;-1.010;2023-04-03T02:20:44;102212.78;;;1.01;71.74
62946;BME280;52164;52.212;-1.010;2023-04-03T02:23:09;102211.98;;;0.97;71.77
62946;BME280;52164;52.212;-1.010;2023-04-03T02:25:35;102213.48;;;0.93;71.85
62946;BME280;52164;52.212;-1.010;2023-04-03T02:28:03;102211.63;;;0.89;71.97
62946;BME280;52164;52.212;-1.010;2023-04-03T02:30:28;102213.07;;;0.84;72.35
62946;BME280;52164;52.212;-1.010;2023-04-03T02:32:53;102208.30;;;0.78;72.51
62946;BME280;52164;52.212;-1.010;2023-04-03T02:35:18;102207.84;;;0.74;72.49
62946;BME280;52164;52.212;-1.010;2023-04-03T02:37:44;102207.45;;;0.71;72.49
62946;BME280;52164;52.212;-1.010;2023-04-03T02:40:10;102211.13;;;0.68;72.57
62946;BME280;52164;52.212;-1.010;2023-04-03T02:42:36;102207.91;;;0.65;72.61
62946;BME280;52164;52.212;-1.010;2023-04-03T02:45:02;102209.38;;;0.60;72.66
62946;BME280;52164;52.212;-1.010;2023-04-03T02:47:27;102211.55;;;0.56;72.74
62946;BME280;52164;52.212;-1.010;2023-04-03T02:49:53;102213.71;;;0.51;72.79
62946;BME280;52164;52.212;-1.010;2023-04-03T02:52:18;102219.54;;;0.49;72.66
62946;BME280;52164;52.212;-1.010;2023-04-03T02:54:43;102217.91;;;0.48;72.93
62946;BME280;52164;52.212;-1.010;2023-04-03T02:57:09;102213.59;;;0.49;72.92
62946;BME280;52164;52.212;-1.010;2023-04-03T02:59:36;102211.38;;;0.51;72.72
62946;BME280;52164;52.212;-1.010;2023-04-03T03:02:02;102213.75;;;0.52;72.79
62946;BME280;52164;52.212;-1.010;2023-04-03T03:04:27;102208.22;;;0.53;72.94
62946;BME280;52164;52.212;-1.010;2023-04-03T03:06:52;102205.44;;;0.57;73.25
62946;BME280;52164;52.212;-1.010;2023-04-03T03:09:20;102203.88;;;0.59;73.32
62946;BME280;52164;52.212;-1.010;2023-04-03T03:11:45;102206.25;;;0.63;73.58
62946;BME280;52164;52.212;-1.010;2023-04-03T03:14:10;102205.41;;;0.69;73.38
62946;BME280;52164;52.212;-1.010;2023-04-03T03:16:36;102208.99;;;0.75;73.50
62946;BME280;52164;52.212;-1.010;2023-04-03T03:19:01;102210.24;;;0.81;73.33
62946;BME280;52164;52.212;-1.010;2023-04-03T03:21:26;102208.55;;;0.84;73.00
62946;BME280;52164;52.212;-1.010;2023-04-03T03:23:52;102207.60;;;0.86;73.09
62946;BME280;52164;52.212;-1.010;2023-04-03T03:26:17;102203.58;;;0.89;73.06
62946;BME280;52164;52.212;-1.010;2023-04-03T03:28:43;102206.73;;;0.92;72.92
62946;BME280;52164;52.212;-1.010;2023-04-03T03:31:08;102201.73;;;0.93;72.63
62946;BME280;52164;52.212;-1.010;2023-04-03T03:33:33;102201.72;;;0.90;72.71
62946;BME280;52164;52.212;-1.010;2023-04-03T03:35:59;102202.57;;;0.87;72.77
62946;BME280;52164;52.212;-1.010;2023-04-03T03:38:25;102201.77;;;0.83;72.88
62946;BME280;52164;52.212;-1.010;2023-04-03T03:40:50;102205.42;;;0.80;72.83
62946;BME280;52164;52.212;-1.010;2023-04-03T03:43:16;102204.99;;;0.76;72.87
62946;BME280;52164;52.212;-1.010;2023-04-03T03:45:41;102201.79;;;0.73;73.05
62946;BME280;52164;52.212;-1.010;2023-04-03T03:48:07;102197.05;;;0.68;72.80
62946;BME280;52164;52.212;-1.010;2023-04-03T03:50:32;102198.02;;;0.63;73.06
62946;BME280;52164;52.212;-1.010;2023-04-03T03:52:57;102198.27;;;0.59;73.31
62946;BME280;52164;52.212;-1.010;2023-04-03T03:55:23;102194.82;;;0.58;73.57
62946;BME280;52164;52.212;-1.010;2023-04-03T03:57:48;102196.70;;;0.57;73.25
62946;BME280;52164;52.212;-1.010;2023-04-03T04:00:14;102197.33;;;0.56;73.63
62946;BME280;52164;52.212;-1.010;2023-04-03T04:02:39;102198.13;;;0.55;73.59
62946;BME280;52164;52.212;-1.010;2023-04-03T04:05:05;102197.66;;;0.53;73.53
62946;BME280;52164;52.212;-1.010;2023-04-03T04:07:31;102197.73;;;0.51;73.64
62946;BME280;52164;52.212;-1.010;2023-04-03T04:09:57;102200.73;;;0.51;73.64
62946;BME280;52164;52.212;-1.010;2023-04-03T04:12:22;102195.04;;;0.53;73.51
62946;BME280;52164;52.212;-1.010;2023-04-03T04:14:47;102197.74;;;0.57;73.62
62946;BME280;52164;52.212;-1.010;2023-04-03T04:17:13;102198.23;;;0.62;73.83
62946;BME280;52164;52.212;-1.010;2023-04-03T04:19:39;102198.09;;;0.67;73.80
62946;BME280;52164;52.212;-1.010;2023-04-03T04:22:04;102194.40;;;0.73;73.74
62946;BME280;52164;52.212;-1.010;2023-04-03T04:24:30;102193.30;;;0.80;73.81
62946;BME280;52164;52.212;-1.010;2023-04-03T04:26:55;102193.92;;;0.87;73.91
62946;BME280;52164;52.212;-1.010;2023-04-03T04:29:21;102194.98;;;0.92;73.45
62946;BME280;52164;52.212;-1.010;2023-04-03T04:31:46;102197.64;;;0.98;73.61
62946;BME280;52164;52.212;-1.010;2023-04-03T04:34:12;102195.35;;;1.03;73.57
62946;BME280;52164;52.212;-1.010;2023-04-03T04:36:38;102191.04;;;1.07;73.11
62946;BME280;52164;52.212;-1.010;2023-04-03T04:39:03;102192.52;;;1.08;73.29
62946;BME280;52164;52.212;-1.010;2023-04-03T04:41:29;102188.55;;;1.10;73.51
62946;BME280;52164;52.212;-1.010;2023-04-03T04:43:54;102192.10;;;1.13;73.69
62946;BME280;52164;52.212;-1.010;2023-04-03T04:46:19;102192.21;;;1.14;73.52
62946;BME280;52164;52.212;-1.010;2023-04-03T04:48:45;102190.55;;;1.16;73.49
62946;BME280;52164;52.212;-1.010;2023-04-03T04:51:10;102193.52;;;1.15;73.55
62946;BME280;52164;52.212;-1.010;2023-04-03T04:53:36;102188.95;;;1.16;73.54
62946;BME280;52164;52.212;-1.010;2023-04-03T04:56:01;102189.17;;;1.16;73.67
62946;BME280;52164;52.212;-1.010;2023-04-03T04:58:27;102193.02;;;1.16;73.32
62946;BME280;52164;52.212;-1.010;2023-04-03T05:00:58;102191.23;;;1.15;73.73
62946;BME280;52164;52.212;-1.010;2023-04-03T05:03:23;102192.20;;;1.17;73.65
62946;BME280;52164;52.212;-1.010;2023-04-03T05:05:48;102196.66;;;1.18;73.50
62946;BME280;52164;52.212;-1.010;2023-04-03T05:08:14;102198.20;;;1.17;73.46
62946;BME280;52164;52.212;-1.010;2023-04-03T05:10:39;102196.48;;;1.18;73.74
62946;BME280;52164;52.212;-1.010;2023-04-03T05:13:06;102195.76;;;1.17;73.75
62946;BME280;52164;52.212;-1.010;2023-04-03T05:15:32;102196.33;;;1.18;73.70
62946;BME280;52164;52.212;-1.010;2023-04-03T05:17:57;102192.85;;;1.19;73.81
62946;BME280;52164;52.212;-1.010;2023-04-03T05:20:22;102201.31;;;1.22;73.69
62946;BME280;52164;52.212;-1.010;2023-04-03T05:22:47;102197.97;;;1.24;73.70
62946;BME280;52164;52.212;-1.010;2023-04-03T05:25:13;102198.39;;;1.28;73.56
62946;BME280;52164;52.212;-1.010;2023-04-03T05:27:38;102200.23;;;1.32;73.84
62946;BME280;52164;52.212;-1.010;2023-04-03T05:30:05;102196.83;;;1.37;73.97
62946;BME280;52164;52.212;-1.010;2023-04-03T05:32:31;102199.73;;;1.44;73.69
62946;BME280;52164;52.212;-1.010;2023-04-03T05:34:56;102201.17;;;1.50;73.97
62946;BME280;52164;52.212;-1.010;2023-04-03T05:37:21;102200.77;;;1.54;74.02
62946;BME280;52164;52.212;-1.010;2023-04-03T05:39:47;102199.80;;;1.59;74.25
62946;BME280;52164;52.212;-1.010;2023-04-03T05:42:13;102201.40;;;1.62;74.13
62946;BME280;52164;52.212;-1.010;2023-04-03T05:44:38;102201.88;;;1.67;74.07
62946;BME280;52164;52.212;-1.010;2023-04-03T05:47:04;102205.27;;;1.70;74.12
62946;BME280;52164;52.212;-1.010;2023-04-03T05:49:30;102203.14;;;1.73;73.76
62946;BME280;52164;52.212;-1.010;2023-04-03T05:51:55;102208.71;;;1.74;73.85
62946;BME280;52164;52.212;-1.010;2023-04-03T05:54:23;102208.41;;;1.75;73.95
62946;BME280;52164;52.212;-1.010;2023-04-03T05:56:49;102205.96;;;1.75;73.84
62946;BME280;52164;52.212;-1.010;2023-04-03T05:59:15;102205.12;;;1.76;73.50
62946;BME280;52164;52.212;-1.010;2023-04-03T06:01:40;102206.73;;;1.76;73.71
62946;BME280;52164;52.212;-1.010;2023-04-03T06:04:06;102208.45;;;1.79;73.86
62946;BME280;52164;52.212;-1.010;2023-04-03T06:06:50;102206.30;;;1.81;74.02
62946;BME280;52164;52.212;-1.010;2023-04-03T06:09:17;102209.63;;;1.83;73.92
62946;BME280;52164;52.212;-1.010;2023-04-03T06:11:43;102209.89;;;1.85;74.16
62946;BME280;52164;52.212;-1.010;2023-04-03T06:14:08;102211.98;;;1.87;74.17
62946;BME280;52164;52.212;-1.010;2023-04-03T06:16:34;102210.86;;;1.92;73.83
62946;BME280;52164;52.212;-1.010;2023-04-03T06:18:59;102215.80;;;1.95;73.91
62946;BME280;52164;52.212;-1.010;2023-04-03T06:21:25;102216.63;;;1.97;74.07
62946;BME280;52164;52.212;-1.010;2023-04-03T06:23:50;102216.99;;;2.00;74.09
62946;BME280;52164;52.212;-1.010;2023-04-03T06:26:16;102213.75;;;2.05;74.30
62946;BME280;52164;52.212;-1.010;2023-04-03T06:28:42;102211.61;;;2.10;73.96
62946;BME280;52164;52.212;-1.010;2023-04-03T06:31:07;102214.73;;;2.15;74.07
62946;BME280;52164;52.212;-1.010;2023-04-03T06:33:33;102211.90;;;2.20;73.99
62946;BME280;52164;52.212;-1.010;2023-04-03T06:35:59;102212.13;;;2.27;73.98
62946;BME280;52164;52.212;-1.010;2023-04-03T06:38:24;102214.40;;;2.36;73.90
62946;BME280;52164;52.212;-1.010;2023-04-03T06:40:50;102212.60;;;2.44;73.97
62946;BME280;52164;52.212;-1.010;2023-04-03T06:43:16;102212.80;;;2.53;73.94
62946;BME280;52164;52.212;-1.010;2023-04-03T06:45:42;102210.38;;;2.63;73.81
62946;BME280;52164;52.212;-1.010;2023-04-03T06:48:07;102213.98;;;2.73;73.22
62946;BME280;52164;52.212;-1.010;2023-04-03T06:50:32;102214.55;;;2.82;73.80
62946;BME280;52164;52.212;-1.010;2023-04-03T06:52:57;102210.27;;;2.91;73.20
62946;BME280;52164;52.212;-1.010;2023-04-03T06:55:23;102215.45;;;2.98;73.02
62946;BME280;52164;52.212;-1.010;2023-04-03T06:57:48;102219.05;;;3.06;73.04
62946;BME280;52164;52.212;-1.010;2023-04-03T07:00:14;102218.70;;;3.12;73.07
62946;BME280;52164;52.212;-1.010;2023-04-03T07:02:39;102215.91;;;3.19;72.86
62946;BME280;52164;52.212;-1.010;2023-04-03T07:05:05;102219.32;;;3.26;73.12
62946;BME280;52164;52.212;-1.010;2023-04-03T07:07:31;102218.27;;;3.35;73.29
62946;BME280;52164;52.212;-1.010;2023-04-03T07:09:58;102216.04;;;3.42;73.16
62946;BME280;52164;52.212;-1.010;2023-04-03T07:12:26;102216.31;;;3.51;73.50
62946;BME280;52164;52.212;-1.010;2023-04-03T07:14:52;102215.89;;;3.59;73.16
62946;BME280;52164;52.212;-1.010;2023-04-03T07:17:17;102215.70;;;3.68;73.01
62946;BME280;52164;52.212;-1.010;2023-04-03T07:19:43;102214.64;;;3.78;72.89
62946;BME280;52164;52.212;-1.010;2023-04-03T07:22:08;102212.66;;;3.87;72.90
62946;BME280;52164;52.212;-1.010;2023-04-03T07:24:34;102208.84;;;3.98;72.59
62946;BME280;52164;52.212;-1.010;2023-04-03T07:27:00;102207.13;;;4.09;72.50
62946;BME280;52164;52.212;-1.010;2023-04-03T07:29:25;102207.59;;;4.21;72.48
62946;BME280;52164;52.212;-1.010;2023-04-03T07:31:51;102205.45;;;4.34;72.43
62946;BME280;52164;52.212;-1.010;2023-04-03T07:34:17;102205.87;;;4.46;71.96
62946;BME280;52164;52.212;-1.010;2023-04-03T07:36:42;102210.05;;;4.54;71.70
62946;BME280;52164;52.212;-1.010;2023-04-03T07:39:08;102214.63;;;4.64;71.67
62946;BME280;52164;52.212;-1.010;2023-04-03T07:41:33;102214.67;;;4.72;71.71
62946;BME280;52164;52.212;-1.010;2023-04-03T07:43:59;102215.79;;;4.81;71.74
62946;BME280;52164;52.212;-1.010;2023-04-03T07:46:24;102212.31;;;4.89;71.54
62946;BME280;52164;52.212;-1.010;2023-04-03T07:48:51;102216.31;;;5.01;71.59
62946;BME280;52164;52.212;-1.010;2023-04-03T07:51:16;102216.14;;;5.13;71.53
62946;BME280;52164;52.212;-1.010;2023-04-03T07:53:41;102221.28;;;5.23;71.37
62946;BME280;52164;52.212;-1.010;2023-04-03T07:56:07;102215.20;;;5.32;71.20
62946;BME280;52164;52.212;-1.010;2023-04-03T07:58:32;102209.85;;;5.43;70.93
62946;BME280;52164;52.212;-1.010;2023-04-03T08:00:58;102215.65;;;5.54;70.51
62946;BME280;52164;52.212;-1.010;2023-04-03T08:03:23;102212.13;;;5.65;70.51
62946;BME280;52164;52.212;-1.010;2023-04-03T08:05:49;102211.66;;;5.78;70.27
62946;BME280;52164;52.212;-1.010;2023-04-03T08:08:16;102210.11;;;5.90;70.06
62946;BME280;52164;52.212;-1.010;2023-04-03T08:10:42;102212.94;;;6.05;69.93
62946;BME280;52164;52.212;-1.010;2023-04-03T08:13:07;102212.31;;;6.18;69.41
62946;BME280;52164;52.212;-1.010;2023-04-03T08:15:33;102207.30;;;6.29;69.23
62946;BME280;52164;52.212;-1.010;2023-04-03T08:17:59;102205.84;;;6.40;68.85
62946;BME280;52164;52.212;-1.010;2023-04-03T08:20:25;102205.95;;;6.51;68.40
62946;BME280;52164;52.212;-1.010;2023-04-03T08:22:51;102209.70;;;6.60;68.27
62946;BME280;52164;52.212;-1.010;2023-04-03T08:25:16;102207.61;;;6.69;67.94
62946;BME280;52164;52.212;-1.010;2023-04-03T08:27:42;102206.98;;;6.79;68.06
62946;BME280;52164;52.212;-1.010;2023-04-03T08:30:08;102207.89;;;6.88;67.77
62946;BME280;52164;52.212;-1.010;2023-04-03T08:32:34;102210.36;;;7.01;67.62
62946;BME280;52164;52.212;-1.010;2023-04-03T08:35:01;102208.36;;;7.13;67.12
62946;BME280;52164;52.212;-1.010;2023-04-03T08:37:26;102210.30;;;7.21;67.05
62946;BME280;52164;52.212;-1.010;2023-04-03T08:39:51;102211.80;;;7.31;66.64
62946;BME280;52164;52.212;-1.010;2023-04-03T08:42:23;102208.05;;;7.39;66.58
62946;BME280;52164;52.212;-1.010;2023-04-03T08:45:02;102205.59;;;7.49;66.58
62946;BME280;52164;52.212;-1.010;2023-04-03T08:47:28;102209.36;;;7.60;66.55
62946;BME280;52164;52.212;-1.010;2023-04-03T08:49:59;102206.57;;;7.70;66.16
62946;BME280;52164;52.212;-1.010;2023-04-03T08:52:57;102206.81;;;7.86;65.76
62946;BME280;52164;52.212;-1.010;2023-04-03T08:55:27;102204.82;;;8.08;65.32
62946;BME280;52164;52.212;-1.010;2023-04-03T08:57:58;102201.48;;;8.24;65.18
62946;BME280;52164;52.212;-1.010;2023-04-03T09:00:26;102205.70;;;8.32;64.80
62946;BME280;52164;52.212;-1.010;2023-04-03T09:02:54;102207.97;;;8.40;64.39
62946;BME280;52164;52.212;-1.010;2023-04-03T09:05:29;102203.86;;;8.55;64.37
62946;BME280;52164;52.212;-1.010;2023-04-03T09:08:00;102203.63;;;8.62;63.75
62946;BME280;52164;52.212;-1.010;2023-04-03T09:10:29;102198.57;;;8.66;63.57
62946;BME280;52164;52.212;-1.010;2023-04-03T09:12:59;102197.02;;;8.78;63.19
62946;BME280;52164;52.212;-1.010;2023-04-03T09:15:30;102201.67;;;8.89;62.42
62946;BME280;52164;52.212;-1.010;2023-04-03T09:17:59;102198.16;;;8.96;62.77
62946;BME280;52164;52.212;-1.010;2023-04-03T09:22:52;102194.09;;;9.13;62.60
62946;BME280;52164;52.212;-1.010;2023-04-03T09:25:21;102195.13;;;9.28;62.30
62946;BME280;52164;52.212;-1.010;2023-04-03T09:27:47;102199.90;;;9.50;62.00
62946;BME280;52164;52.212;-1.010;2023-04-03T09:30:13;102197.81;;;9.69;61.86
62946;BME280;52164;52.212;-1.010;2023-04-03T09:32:40;102199.08;;;9.81;61.41
62946;BME280;52164;52.212;-1.010;2023-04-03T09:35:15;102193.82;;;9.90;61.19
62946;BME280;52164;52.212;-1.010;2023-04-03T09:37:42;102185.27;;;9.97;60.90
62946;BME280;52164;52.212;-1.010;2023-04-03T09:41:14;102184.45;;;10.12;60.51
62946;BME280;52164;52.212;-1.010;2023-04-03T09:42:54;102186.27;;;10.26;60.23
62946;BME280;52164;52.212;-1.010;2023-04-03T09:45:21;102185.80;;;10.21;60.07
62946;BME280;52164;52.212;-1.010;2023-04-03T09:47:48;102186.55;;;10.29;60.51
62946;BME280;52164;52.212;-1.010;2023-04-03T09:52:40;102179.76;;;10.54;60.47
62946;BME280;52164;52.212;-1.010;2023-04-03T09:55:06;102181.31;;;10.58;60.24
62946;BME280;52164;52.212;-1.010;2023-04-03T09:57:32;102182.03;;;10.59;60.03
62946;BME280;52164;52.212;-1.010;2023-04-03T09:59:58;102174.37;;;10.59;59.77
62946;BME280;52164;52.212;-1.010;2023-04-03T10:02:30;102175.30;;;10.61;58.76
62946;BME280;52164;52.212;-1.010;2023-04-03T10:04:57;102179.25;;;10.54;58.55
62946;BME280;52164;52.212;-1.010;2023-04-03T10:07:27;102181.33;;;10.45;58.61
62946;BME280;52164;52.212;-1.010;2023-04-03T10:09:55;102178.73;;;10.42;58.29
62946;BME280;52164;52.212;-1.010;2023-04-03T10:12:21;102184.55;;;10.46;58.18
62946;BME280;52164;52.212;-1.010;2023-04-03T10:15:01;102180.27;;;10.53;58.17
62946;BME280;52164;52.212;-1.010;2023-04-03T10:19:42;102180.59;;;10.65;58.58
62946;BME280;52164;52.212;-1.010;2023-04-03T10:20:44;102176.83;;;10.78;58.25
62946;BME280;52164;52.212;-1.010;2023-04-03T10:25:20;102176.92;;;10.89;57.92
62946;BME280;52164;52.212;-1.010;2023-04-03T10:25:51;102174.96;;;10.96;57.64
62946;BME280;52164;52.212;-1.010;2023-04-03T10:30:48;102174.75;;;11.17;57.21
62946;BME280;52164;52.212;-1.010;2023-04-03T10:33:27;102169.55;;;11.24;57.13
62946;BME280;52164;52.212;-1.010;2023-04-03T10:38:40;102160.84;;;11.50;56.98
62946;BME280;52164;52.212;-1.010;2023-04-03T10:41:11;102161.78;;;11.59;56.19
62946;BME280;52164;52.212;-1.010;2023-04-03T10:46:09;102153.55;;;11.75;55.09
62946;BME280;52164;52.212;-1.010;2023-04-03T10:48:41;102150.52;;;11.84;55.01
62946;BME280;52164;52.212;-1.010;2023-04-03T10:54:04;102143.12;;;11.81;54.76
62946;BME280;52164;52.212;-1.010;2023-04-03T10:56:37;102135.64;;;11.91;54.34
62946;BME280;52164;52.212;-1.010;2023-04-03T10:59:13;102137.95;;;11.99;54.66
62946;BME280;52164;52.212;-1.010;2023-04-03T11:01:42;102136.02;;;11.99;54.28
62946;BME280;52164;52.212;-1.010;2023-04-03T11:04:09;102133.84;;;11.98;53.90
62946;BME280;52164;52.212;-1.010;2023-04-03T11:07:40;102138.74;;;12.11;54.25
62946;BME280;52164;52.212;-1.010;2023-04-03T11:09:31;102135.50;;;12.20;53.80
62946;BME280;52164;52.212;-1.010;2023-04-03T11:12:03;102131.90;;;12.38;53.94
62946;BME280;52164;52.212;-1.010;2023-04-03T11:14:31;102131.89;;;12.78;53.50
62946;BME280;52164;52.212;-1.010;2023-04-03T11:19:17;102131.32;;;13.08;52.60
62946;BME280;52164;52.212;-1.010;2023-04-03T11:19:47;102125.10;;;13.25;52.97
62946;BME280;52164;52.212;-1.010;2023-04-03T11:24:42;102121.27;;;13.86;51.30
62946;BME280;52164;52.212;-1.010;2023-04-03T11:27:11;102116.62;;;14.18;51.80
62946;BME280;52164;52.212;-1.010;2023-04-03T11:29:41;102113.95;;;14.54;50.64
62946;BME280;52164;52.212;-1.010;2023-04-03T11:32:46;102119.73;;;14.77;50.22
62946;BME280;52164;52.212;-1.010;2023-04-03T11:34:56;102112.84;;;14.92;49.75
62946;BME280;52164;52.212;-1.010;2023-04-03T11:37:33;102108.15;;;15.14;49.48
62946;BME280;52164;52.212;-1.010;2023-04-03T11:40:04;102108.01;;;15.21;48.65
62946;BME280;52164;52.212;-1.010;2023-04-03T11:42:33;102108.36;;;15.20;48.60
62946;BME280;52164;52.212;-1.010;2023-04-03T11:46:06;102105.05;;;15.09;48.41
62946;BME280;52164;52.212;-1.010;2023-04-03T11:47:49;102104.34;;;14.85;48.02
62946;BME280;52164;52.212;-1.010;2023-04-03T11:50:46;102103.38;;;14.60;47.93
62946;BME280;52164;52.212;-1.010;2023-04-03T11:53:02;102097.48;;;14.42;48.05
62946;BME280;52164;52.212;-1.010;2023-04-03T11:56:03;102090.57;;;14.33;47.83
62946;BME280;52164;52.212;-1.010;2023-04-03T11:58:15;102092.39;;;14.36;48.55
62946;BME280;52164;52.212;-1.010;2023-04-03T12:00:48;102097.03;;;14.33;48.57
62946;BME280;52164;52.212;-1.010;2023-04-03T12:03:31;102091.04;;;14.10;48.45
62946;BME280;52164;52.212;-1.010;2023-04-03T12:13:34;102087.50;;;13.97;48.45
62946;BME280;52164;52.212;-1.010;2023-04-03T12:15:59;102083.66;;;14.08;48.59
62946;BME280;52164;52.212;-1.010;2023-04-03T12:18:31;102082.70;;;14.18;48.42
62946;BME280;52164;52.212;-1.010;2023-04-03T12:20:58;102078.95;;;14.21;48.41
62946;BME280;52164;52.212;-1.010;2023-04-03T12:23:26;102079.13;;;14.22;47.99
62946;BME280;52164;52.212;-1.010;2023-04-03T12:25:52;102072.93;;;14.29;47.80
62946;BME280;52164;52.212;-1.010;2023-04-03T12:28:24;102075.05;;;14.64;48.39
62946;BME280;52164;52.212;-1.010;2023-04-03T12:30:50;102068.34;;;15.03;48.32
62946;BME280;52164;52.212;-1.010;2023-04-03T12:33:25;102063.96;;;15.24;47.99
62946;BME280;52164;52.212;-1.010;2023-04-03T12:35:58;102064.00;;;15.29;47.34
62946;BME280;52164;52.212;-1.010;2023-04-03T12:39:05;102065.14;;;15.40;46.84
62946;BME280;52164;52.212;-1.010;2023-04-03T12:44:45;102054.77;;;15.59;45.85
62946;BME280;52164;52.212;-1.010;2023-04-03T12:46:26;102050.68;;;15.74;46.25
62946;BME280;52164;52.212;-1.010;2023-04-03T12:48:54;102053.77;;;15.78;46.63
62946;BME280;52164;52.212;-1.010;2023-04-03T12:51:22;102049.50;;;15.86;46.49
62946;BME280;52164;52.212;-1.010;2023-04-03T12:53:51;102046.98;;;15.91;46.40
62946;BME280;52164;52.212;-1.010;2023-04-03T12:58:47;102046.10;;;16.02;46.00
62946;BME280;52164;52.212;-1.010;2023-04-03T13:01:22;102041.61;;;16.06;46.11
62946;BME280;52164;52.212;-1.010;2023-04-03T13:03:49;102039.47;;;16.11;45.97
62946;BME280;52164;52.212;-1.010;2023-04-03T13:06:24;102034.24;;;16.16;45.27
62946;BME280;52164;52.212;-1.010;2023-04-03T13:08:53;102030.83;;;16.26;45.18
62946;BME280;52164;52.212;-1.010;2023-04-03T13:11:23;102027.41;;;16.36;45.15
62946;BME280;52164;52.212;-1.010;2023-04-03T13:13:58;102020.56;;;16.54;45.22
62946;BME280;52164;52.212;-1.010;2023-04-03T13:16:23;102021.10;;;16.56;44.15
62946;BME280;52164;52.212;-1.010;2023-04-03T13:18:50;102019.48;;;16.59;44.41
62946;BME280;52164;52.212;-1.010;2023-04-03T13:21:21;102014.43;;;16.57;44.89